Startpagina
METAR-TAF:

METAR-TAF

Vliegvelden :

Hévíz-Balaton Airport

Hévíz, Hongarije

breedte: 46-41-11N, lengte: 017-09-33E, hoogte: 124 m

Actueel weer

Dit bericht is 23 minuten geleden gemaakt, om 11:15 UTC
Wind 5 kt uit het noordnoordoosten
Temperatuur 22°C
Vochtigheid 60%
Druk 1021 hPa
Zicht 10 km of meer
Weinig wolken op 4000 ft
Gebroken wolken op 20000 ft

METAR: LHSM 201115Z 03005KT 9999 FEW040 BKN200 22/14 Q1021 NOSIG

Tijdstip: 13:38 (11:38 UTC)

Verwachting

Dit bericht is 23 minuten geleden gemaakt, om 11:15 UTC
Verwachting geldig van 20 om 12 UTC tot 20 om 21 UTC
Wind 7 kt uit het noordoosten
Zicht 10 km of meer
Weinig wolken op 4300 ft
Gebroken wolken op 20000 ft
Wijzigt naar
van 20 om 13 UTC tot 20 om 15 UTC
Zicht 10 km of meer
geen wolken onder 1500 m en geen cumulonimbus

TAF: LHSM 201115Z 2012/2021 04007KT 9999 FEW043 BKN200 BECMG 2013/2015 CAVOK

Waarnemingen en weersverwachtingen van meer dan 4000 vliegvelden (METAR en TAF).

De beschikbare stations zijn de gele en rode punten op de kaart.

Ga met uw muis naar het station om de naam te zien.

Klik dan om waarnemingen en weersverwachtingen te zien.

kaart wijzigen: klik op de groene knoppen met een zwart kruis om in te zoomen, op de groene knop met een streepje om uit te zoomen of op de groene pijlen voor aangrenzende kaarten.


METAR-TAF: